sensor_id;sensor_type;location;lat;lon;timestamp;P1;durP1;ratioP1;P2;durP2;ratioP2
14015;SDS011;7083;48.854;9.158;2023-09-12T00:01:03;530.60;;;498.00;;
14015;SDS011;7083;48.854;9.158;2023-09-12T00:03:31;731.90;;;678.23;;
14015;SDS011;7083;48.854;9.158;2023-09-12T00:06:00;570.07;;;530.67;;
14015;SDS011;7083;48.854;9.158;2023-09-12T00:08:28;481.67;;;451.63;;
14015;SDS011;7083;48.854;9.158;2023-09-12T00:10:59;559.47;;;524.60;;
14015;SDS011;7083;48.854;9.158;2023-09-12T00:13:27;560.23;;;525.47;;
14015;SDS011;7083;48.854;9.158;2023-09-12T00:15:53;510.37;;;479.93;;
14015;SDS011;7083;48.854;9.158;2023-09-12T00:18:20;515.70;;;481.87;;
14015;SDS011;7083;48.854;9.158;2023-09-12T00:20:47;512.70;;;482.97;;
14015;SDS011;7083;48.854;9.158;2023-09-12T00:23:15;527.50;;;496.23;;
14015;SDS011;7083;48.854;9.158;2023-09-12T00:25:42;572.53;;;536.50;;
14015;SDS011;7083;48.854;9.158;2023-09-12T00:28:08;638.23;;;595.20;;
14015;SDS011;7083;48.854;9.158;2023-09-12T00:30:35;690.00;;;639.50;;
14015;SDS011;7083;48.854;9.158;2023-09-12T00:33:02;587.33;;;550.07;;
14015;SDS011;7083;48.854;9.158;2023-09-12T00:35:29;599.73;;;561.37;;
14015;SDS011;7083;48.854;9.158;2023-09-12T00:37:56;629.97;;;588.10;;
14015;SDS011;7083;48.854;9.158;2023-09-12T00:40:24;597.60;;;560.90;;
14015;SDS011;7083;48.854;9.158;2023-09-12T00:42:51;575.43;;;540.57;;
14015;SDS011;7083;48.854;9.158;2023-09-12T00:45:18;541.23;;;509.93;;
14015;SDS011;7083;48.854;9.158;2023-09-12T00:47:44;549.73;;;517.47;;
14015;SDS011;7083;48.854;9.158;2023-09-12T00:50:12;558.50;;;525.27;;
14015;SDS011;7083;48.854;9.158;2023-09-12T00:52:40;638.70;;;598.00;;
14015;SDS011;7083;48.854;9.158;2023-09-12T00:55:08;627.47;;;586.83;;
14015;SDS011;7083;48.854;9.158;2023-09-12T00:57:37;475.13;;;448.03;;
14015;SDS011;7083;48.854;9.158;2023-09-12T01:00:04;512.83;;;483.63;;
14015;SDS011;7083;48.854;9.158;2023-09-12T01:02:36;536.33;;;505.13;;
14015;SDS011;7083;48.854;9.158;2023-09-12T01:05:04;560.83;;;527.07;;
14015;SDS011;7083;48.854;9.158;2023-09-12T01:07:32;666.03;;;621.57;;
14015;SDS011;7083;48.854;9.158;2023-09-12T01:09:59;471.93;;;443.00;;
14015;SDS011;7083;48.854;9.158;2023-09-12T01:12:26;484.37;;;457.00;;
14015;SDS011;7083;48.854;9.158;2023-09-12T01:14:55;722.20;;;671.47;;
14015;SDS011;7083;48.854;9.158;2023-09-12T01:17:22;733.10;;;681.40;;
14015;SDS011;7083;48.854;9.158;2023-09-12T01:19:49;752.63;;;699.03;;
14015;SDS011;7083;48.854;9.158;2023-09-12T01:22:37;725.87;;;675.10;;
14015;SDS011;7083;48.854;9.158;2023-09-12T01:25:23;433.63;;;408.90;;
14015;SDS011;7083;48.854;9.158;2023-09-12T01:28:19;434.93;;;410.73;;
14015;SDS011;7083;48.854;9.158;2023-09-12T01:30:49;716.73;;;666.50;;
14015;SDS011;7083;48.854;9.158;2023-09-12T01:33:17;719.90;;;669.30;;
14015;SDS011;7083;48.854;9.158;2023-09-12T01:35:45;715.20;;;665.10;;
14015;SDS011;7083;48.854;9.158;2023-09-12T01:38:12;440.20;;;413.33;;
14015;SDS011;7083;48.854;9.158;2023-09-12T01:40:42;425.33;;;400.30;;
14015;SDS011;7083;48.854;9.158;2023-09-12T01:43:10;724.60;;;672.63;;
14015;SDS011;7083;48.854;9.158;2023-09-12T01:45:40;751.73;;;697.53;;
14015;SDS011;7083;48.854;9.158;2023-09-12T01:48:08;755.67;;;700.47;;
14015;SDS011;7083;48.854;9.158;2023-09-12T01:50:35;565.07;;;527.57;;
14015;SDS011;7083;48.854;9.158;2023-09-12T01:53:12;508.23;;;475.43;;
14015;SDS011;7083;48.854;9.158;2023-09-12T01:55:40;766.20;;;710.67;;
14015;SDS011;7083;48.854;9.158;2023-09-12T01:58:09;766.70;;;710.53;;
14015;SDS011;7083;48.854;9.158;2023-09-12T02:00:36;779.77;;;722.23;;
14015;SDS011;7083;48.854;9.158;2023-09-12T02:03:05;508.97;;;477.37;;
14015;SDS011;7083;48.854;9.158;2023-09-12T02:05:32;541.47;;;505.63;;
14015;SDS011;7083;48.854;9.158;2023-09-12T02:07:58;648.73;;;602.53;;
14015;SDS011;7083;48.854;9.158;2023-09-12T02:10:26;672.33;;;623.67;;
14015;SDS011;7083;48.854;9.158;2023-09-12T02:13:08;621.60;;;579.57;;
14015;SDS011;7083;48.854;9.158;2023-09-12T02:15:35;384.47;;;361.37;;
14015;SDS011;7083;48.854;9.158;2023-09-12T02:18:02;501.23;;;468.63;;
14015;SDS011;7083;48.854;9.158;2023-09-12T02:20:31;734.47;;;680.93;;
14015;SDS011;7083;48.854;9.158;2023-09-12T02:22:59;616.40;;;574.13;;
14015;SDS011;7083;48.854;9.158;2023-09-12T02:25:30;588.90;;;549.73;;
14015;SDS011;7083;48.854;9.158;2023-09-12T02:27:58;457.70;;;427.80;;
14015;SDS011;7083;48.854;9.158;2023-09-12T02:30:25;626.03;;;580.93;;
14015;SDS011;7083;48.854;9.158;2023-09-12T02:32:52;670.70;;;622.03;;
14015;SDS011;7083;48.854;9.158;2023-09-12T02:35:22;695.23;;;644.50;;
14015;SDS011;7083;48.854;9.158;2023-09-12T02:37:50;629.73;;;586.87;;
14015;SDS011;7083;48.854;9.158;2023-09-12T02:40:17;368.50;;;347.97;;
14015;SDS011;7083;48.854;9.158;2023-09-12T02:42:44;552.03;;;514.10;;
14015;SDS011;7083;48.854;9.158;2023-09-12T02:45:11;579.87;;;539.00;;
14015;SDS011;7083;48.854;9.158;2023-09-12T02:47:37;777.47;;;720.73;;
14015;SDS011;7083;48.854;9.158;2023-09-12T02:50:04;766.70;;;710.87;;
14015;SDS011;7083;48.854;9.158;2023-09-12T02:52:31;387.03;;;366.93;;
14015;SDS011;7083;48.854;9.158;2023-09-12T02:54:59;748.57;;;693.53;;
14015;SDS011;7083;48.854;9.158;2023-09-12T02:57:27;747.80;;;693.17;;
14015;SDS011;7083;48.854;9.158;2023-09-12T02:59:57;772.27;;;715.40;;
14015;SDS011;7083;48.854;9.158;2023-09-12T03:02:24;412.80;;;388.13;;
14015;SDS011;7083;48.854;9.158;2023-09-12T03:04:54;722.13;;;669.37;;
14015;SDS011;7083;48.854;9.158;2023-09-12T03:07:23;739.77;;;685.77;;
14015;SDS011;7083;48.854;9.158;2023-09-12T03:09:50;792.40;;;733.77;;
14015;SDS011;7083;48.854;9.158;2023-09-12T03:12:18;782.87;;;724.77;;
14015;SDS011;7083;48.854;9.158;2023-09-12T03:14:45;369.67;;;350.23;;
14015;SDS011;7083;48.854;9.158;2023-09-12T03:17:12;338.97;;;320.47;;
14015;SDS011;7083;48.854;9.158;2023-09-12T03:19:38;783.13;;;725.50;;
14015;SDS011;7083;48.854;9.158;2023-09-12T03:22:05;770.63;;;714.00;;
14015;SDS011;7083;48.854;9.158;2023-09-12T03:24:32;455.17;;;426.80;;
14015;SDS011;7083;48.854;9.158;2023-09-12T03:26:58;367.50;;;348.23;;
14015;SDS011;7083;48.854;9.158;2023-09-12T03:29:26;722.77;;;669.57;;
14015;SDS011;7083;48.854;9.158;2023-09-12T03:31:53;744.07;;;689.23;;
14015;SDS011;7083;48.854;9.158;2023-09-12T03:34:20;788.40;;;729.93;;
14015;SDS011;7083;48.854;9.158;2023-09-12T03:36:47;787.97;;;729.37;;
14015;SDS011;7083;48.854;9.158;2023-09-12T03:39:13;391.27;;;371.30;;
14015;SDS011;7083;48.854;9.158;2023-09-12T03:41:40;729.20;;;675.90;;
14015;SDS011;7083;48.854;9.158;2023-09-12T03:44:07;731.63;;;677.90;;
14015;SDS011;7083;48.854;9.158;2023-09-12T03:46:35;575.30;;;536.53;;
14015;SDS011;7083;48.854;9.158;2023-09-12T03:49:02;559.50;;;522.00;;
14015;SDS011;7083;48.854;9.158;2023-09-12T03:51:29;578.37;;;537.17;;
14015;SDS011;7083;48.854;9.158;2023-09-12T03:53:55;753.00;;;697.33;;
14015;SDS011;7083;48.854;9.158;2023-09-12T03:56:22;781.07;;;723.10;;
14015;SDS011;7083;48.854;9.158;2023-09-12T03:58:49;791.53;;;732.60;;
14015;SDS011;7083;48.854;9.158;2023-09-12T04:01:16;262.67;;;250.17;;
14015;SDS011;7083;48.854;9.158;2023-09-12T04:03:44;725.60;;;671.53;;
14015;SDS011;7083;48.854;9.158;2023-09-12T04:06:12;766.93;;;709.87;;
14015;SDS011;7083;48.854;9.158;2023-09-12T04:08:39;790.07;;;731.27;;
14015;SDS011;7083;48.854;9.158;2023-09-12T04:11:06;534.30;;;498.50;;
14015;SDS011;7083;48.854;9.158;2023-09-12T04:13:34;709.20;;;656.60;;
14015;SDS011;7083;48.854;9.158;2023-09-12T04:16:01;763.27;;;706.80;;
14015;SDS011;7083;48.854;9.158;2023-09-12T04:18:28;794.43;;;734.90;;
14015;SDS011;7083;48.854;9.158;2023-09-12T04:20:56;802.27;;;741.87;;
14015;SDS011;7083;48.854;9.158;2023-09-12T04:23:24;156.27;;;148.47;;
14015;SDS011;7083;48.854;9.158;2023-09-12T04:25:51;727.37;;;673.63;;
14015;SDS011;7083;48.854;9.158;2023-09-12T04:28:17;746.27;;;690.77;;
14015;SDS011;7083;48.854;9.158;2023-09-12T04:30:44;791.33;;;731.40;;
14015;SDS011;7083;48.854;9.158;2023-09-12T04:33:11;597.50;;;555.33;;
14015;SDS011;7083;48.854;9.158;2023-09-12T04:35:38;578.03;;;537.77;;
14015;SDS011;7083;48.854;9.158;2023-09-12T04:38:06;703.23;;;650.50;;
14015;SDS011;7083;48.854;9.158;2023-09-12T04:40:33;748.27;;;692.20;;
14015;SDS011;7083;48.854;9.158;2023-09-12T04:42:59;752.93;;;695.90;;
14015;SDS011;7083;48.854;9.158;2023-09-12T04:45:26;167.30;;;159.10;;
14015;SDS011;7083;48.854;9.158;2023-09-12T04:47:53;672.57;;;622.10;;
14015;SDS011;7083;48.854;9.158;2023-09-12T04:50:19;686.47;;;634.87;;
14015;SDS011;7083;48.854;9.158;2023-09-12T04:52:46;698.50;;;645.60;;
14015;SDS011;7083;48.854;9.158;2023-09-12T04:55:14;595.10;;;553.27;;
14015;SDS011;7083;48.854;9.158;2023-09-12T04:57:41;640.93;;;593.23;;
14015;SDS011;7083;48.854;9.158;2023-09-12T05:00:08;738.23;;;682.30;;
14015;SDS011;7083;48.854;9.158;2023-09-12T05:02:36;733.30;;;677.47;;
14015;SDS011;7083;48.854;9.158;2023-09-12T05:05:03;596.73;;;554.77;;
14015;SDS011;7083;48.854;9.158;2023-09-12T05:07:30;525.67;;;488.67;;
14015;SDS011;7083;48.854;9.158;2023-09-12T05:09:57;629.73;;;582.80;;
14015;SDS011;7083;48.854;9.158;2023-09-12T05:12:25;819.83;;;757.27;;
14015;SDS011;7083;48.854;9.158;2023-09-12T05:14:52;809.37;;;747.77;;
14015;SDS011;7083;48.854;9.158;2023-09-12T05:17:18;469.55;;;437.33;;
14015;SDS011;7083;48.854;9.158;2023-09-12T05:19:45;813.13;;;750.77;;
14015;SDS011;7083;48.854;9.158;2023-09-12T05:22:12;339.57;;;322.77;;
14015;SDS011;7083;48.854;9.158;2023-09-12T05:24:38;647.27;;;599.80;;
14015;SDS011;7083;48.854;9.158;2023-09-12T05:27:05;663.30;;;615.10;;
14015;SDS011;7083;48.854;9.158;2023-09-12T05:29:33;648.00;;;601.50;;
14015;SDS011;7083;48.854;9.158;2023-09-12T05:32:00;453.23;;;428.20;;
14015;SDS011;7083;48.854;9.158;2023-09-12T05:34:27;300.17;;;282.77;;
14015;SDS011;7083;48.854;9.158;2023-09-12T05:36:54;354.57;;;333.00;;
14015;SDS011;7083;48.854;9.158;2023-09-12T05:39:22;720.23;;;669.27;;
14015;SDS011;7083;48.854;9.158;2023-09-12T05:41:49;641.57;;;597.03;;
14015;SDS011;7083;48.854;9.158;2023-09-12T05:44:15;531.60;;;497.40;;
14015;SDS011;7083;48.854;9.158;2023-09-12T05:46:44;371.40;;;350.37;;
14015;SDS011;7083;48.854;9.158;2023-09-12T05:49:12;432.00;;;407.43;;
14015;SDS011;7083;48.854;9.158;2023-09-12T05:51:39;596.90;;;558.33;;
14015;SDS011;7083;48.854;9.158;2023-09-12T05:54:07;588.97;;;551.40;;
14015;SDS011;7083;48.854;9.158;2023-09-12T05:56:34;456.33;;;426.17;;
14015;SDS011;7083;48.854;9.158;2023-09-12T05:59:00;325.13;;;308.23;;
14015;SDS011;7083;48.854;9.158;2023-09-12T06:01:27;334.27;;;317.00;;
14015;SDS011;7083;48.854;9.158;2023-09-12T06:03:55;565.40;;;531.90;;
14015;SDS011;7083;48.854;9.158;2023-09-12T06:06:22;550.87;;;518.83;;
14015;SDS011;7083;48.854;9.158;2023-09-12T06:08:49;570.20;;;536.27;;
14015;SDS011;7083;48.854;9.158;2023-09-12T06:11:17;556.90;;;524.17;;
14015;SDS011;7083;48.854;9.158;2023-09-12T06:13:44;719.67;;;662.50;;
14015;SDS011;7083;48.854;9.158;2023-09-12T06:16:10;677.70;;;625.47;;
14015;SDS011;7083;48.854;9.158;2023-09-12T06:18:37;688.23;;;637.10;;
14015;SDS011;7083;48.854;9.158;2023-09-12T06:21:05;688.43;;;637.80;;
14015;SDS011;7083;48.854;9.158;2023-09-12T06:23:33;667.67;;;620.07;;
14015;SDS011;7083;48.854;9.158;2023-09-12T06:26:00;679.73;;;631.37;;
14015;SDS011;7083;48.854;9.158;2023-09-12T06:28:27;652.40;;;606.60;;
14015;SDS011;7083;48.854;9.158;2023-09-12T06:30:55;659.40;;;613.97;;
14015;SDS011;7083;48.854;9.158;2023-09-12T06:33:22;636.63;;;593.07;;
14015;SDS011;7083;48.854;9.158;2023-09-12T06:35:49;649.10;;;605.43;;
14015;SDS011;7083;48.854;9.158;2023-09-12T06:38:19;637.00;;;594.27;;
14015;SDS011;7083;48.854;9.158;2023-09-12T06:40:46;635.97;;;593.50;;
14015;SDS011;7083;48.854;9.158;2023-09-12T06:43:13;598.67;;;559.67;;
14015;SDS011;7083;48.854;9.158;2023-09-12T06:45:40;599.77;;;560.20;;
14015;SDS011;7083;48.854;9.158;2023-09-12T06:48:07;600.97;;;562.00;;
14015;SDS011;7083;48.854;9.158;2023-09-12T06:50:33;586.47;;;549.00;;
14015;SDS011;7083;48.854;9.158;2023-09-12T06:53:03;588.20;;;550.47;;
14015;SDS011;7083;48.854;9.158;2023-09-12T06:55:32;580.80;;;544.60;;
14015;SDS011;7083;48.854;9.158;2023-09-12T06:57:59;581.20;;;545.00;;
14015;SDS011;7083;48.854;9.158;2023-09-12T07:00:25;569.10;;;533.60;;
14015;SDS011;7083;48.854;9.158;2023-09-12T07:02:52;556.67;;;521.97;;
14015;SDS011;7083;48.854;9.158;2023-09-12T07:05:19;555.63;;;521.00;;
14015;SDS011;7083;48.854;9.158;2023-09-12T07:07:46;544.60;;;510.67;;
14015;SDS011;7083;48.854;9.158;2023-09-12T07:10:12;545.50;;;511.07;;
14015;SDS011;7083;48.854;9.158;2023-09-12T07:12:40;540.87;;;507.10;;
14015;SDS011;7083;48.854;9.158;2023-09-12T07:15:07;554.27;;;518.33;;
14015;SDS011;7083;48.854;9.158;2023-09-12T07:17:34;547.13;;;512.03;;
14015;SDS011;7083;48.854;9.158;2023-09-12T07:20:01;564.90;;;528.10;;
14015;SDS011;7083;48.854;9.158;2023-09-12T07:22:29;592.85;;;557.67;;
14015;SDS011;7083;48.854;9.158;2023-09-12T07:24:55;589.87;;;550.87;;
14015;SDS011;7083;48.854;9.158;2023-09-12T07:27:26;589.97;;;549.87;;
14015;SDS011;7083;48.854;9.158;2023-09-12T07:29:55;588.80;;;549.23;;
14015;SDS011;7083;48.854;9.158;2023-09-12T07:32:22;568.70;;;530.13;;
14015;SDS011;7083;48.854;9.158;2023-09-12T07:34:49;577.80;;;538.67;;
14015;SDS011;7083;48.854;9.158;2023-09-12T07:37:16;573.70;;;534.93;;
14015;SDS011;7083;48.854;9.158;2023-09-12T07:39:42;548.70;;;511.93;;
14015;SDS011;7083;48.854;9.158;2023-09-12T07:42:09;513.17;;;479.57;;
14015;SDS011;7083;48.854;9.158;2023-09-12T07:44:36;501.10;;;468.97;;
14015;SDS011;7083;48.854;9.158;2023-09-12T07:47:04;473.90;;;443.27;;
14015;SDS011;7083;48.854;9.158;2023-09-12T07:49:31;460.50;;;431.07;;
14015;SDS011;7083;48.854;9.158;2023-09-12T07:51:58;445.57;;;417.20;;
14015;SDS011;7083;48.854;9.158;2023-09-12T07:54:24;454.13;;;424.97;;
14015;SDS011;7083;48.854;9.158;2023-09-12T07:56:51;466.40;;;436.67;;
14015;SDS011;7083;48.854;9.158;2023-09-12T07:59:18;508.07;;;475.87;;
14015;SDS011;7083;48.854;9.158;2023-09-12T08:01:44;517.97;;;485.37;;
14015;SDS011;7083;48.854;9.158;2023-09-12T08:04:12;520.53;;;487.47;;
14015;SDS011;7083;48.854;9.158;2023-09-12T08:06:39;538.60;;;504.83;;
14015;SDS011;7083;48.854;9.158;2023-09-12T08:09:06;548.07;;;513.00;;
14015;SDS011;7083;48.854;9.158;2023-09-12T08:11:34;551.17;;;516.00;;
14015;SDS011;7083;48.854;9.158;2023-09-12T08:14:01;570.70;;;533.17;;
14015;SDS011;7083;48.854;9.158;2023-09-12T08:16:27;561.27;;;524.23;;
14015;SDS011;7083;48.854;9.158;2023-09-12T08:18:56;555.40;;;518.77;;
14015;SDS011;7083;48.854;9.158;2023-09-12T08:21:24;560.57;;;523.17;;
14015;SDS011;7083;48.854;9.158;2023-09-12T08:23:51;574.27;;;536.07;;
14015;SDS011;7083;48.854;9.158;2023-09-12T08:26:18;505.13;;;468.10;;
14015;SDS011;7083;48.854;9.158;2023-09-12T08:28:44;500.10;;;463.67;;
14015;SDS011;7083;48.854;9.158;2023-09-12T08:31:11;500.67;;;464.03;;
14015;SDS011;7083;48.854;9.158;2023-09-12T08:33:38;518.13;;;480.13;;
14015;SDS011;7083;48.854;9.158;2023-09-12T08:36:05;535.27;;;495.97;;
14015;SDS011;7083;48.854;9.158;2023-09-12T08:38:33;547.07;;;506.90;;
14015;SDS011;7083;48.854;9.158;2023-09-12T08:40:59;564.70;;;522.73;;
14015;SDS011;7083;48.854;9.158;2023-09-12T08:43:26;572.00;;;529.77;;
14015;SDS011;7083;48.854;9.158;2023-09-12T08:45:53;598.17;;;553.00;;
14015;SDS011;7083;48.854;9.158;2023-09-12T08:48:20;610.33;;;565.00;;
14015;SDS011;7083;48.854;9.158;2023-09-12T08:50:48;604.13;;;558.93;;
14015;SDS011;7083;48.854;9.158;2023-09-12T08:53:16;602.40;;;558.33;;
14015;SDS011;7083;48.854;9.158;2023-09-12T08:55:47;608.43;;;563.20;;
14015;SDS011;7083;48.854;9.158;2023-09-12T08:58:13;614.80;;;568.20;;
14015;SDS011;7083;48.854;9.158;2023-09-12T09:00:41;619.83;;;573.70;;
14015;SDS011;7083;48.854;9.158;2023-09-12T09:03:08;624.57;;;578.20;;
14015;SDS011;7083;48.854;9.158;2023-09-12T09:05:36;602.30;;;558.10;;
14015;SDS011;7083;48.854;9.158;2023-09-12T09:08:05;612.37;;;567.10;;
14015;SDS011;7083;48.854;9.158;2023-09-12T09:10:33;632.17;;;585.20;;
14015;SDS011;7083;48.854;9.158;2023-09-12T09:13:01;630.70;;;583.97;;
14015;SDS011;7083;48.854;9.158;2023-09-12T09:15:31;650.10;;;601.93;;
14015;SDS011;7083;48.854;9.158;2023-09-12T09:17:58;635.97;;;589.10;;
14015;SDS011;7083;48.854;9.158;2023-09-12T09:20:29;626.50;;;580.47;;
14015;SDS011;7083;48.854;9.158;2023-09-12T09:23:00;642.77;;;595.33;;
14015;SDS011;7083;48.854;9.158;2023-09-12T09:25:30;636.57;;;589.47;;
14015;SDS011;7083;48.854;9.158;2023-09-12T09:27:57;624.97;;;578.50;;
14015;SDS011;7083;48.854;9.158;2023-09-12T09:30:41;647.70;;;599.57;;
14015;SDS011;7083;48.854;9.158;2023-09-12T09:33:10;635.93;;;588.90;;
14015;SDS011;7083;48.854;9.158;2023-09-12T09:35:37;671.63;;;622.13;;
14015;SDS011;7083;48.854;9.158;2023-09-12T09:38:07;672.30;;;622.77;;
14015;SDS011;7083;48.854;9.158;2023-09-12T09:40:35;671.17;;;622.13;;
14015;SDS011;7083;48.854;9.158;2023-09-12T09:43:03;659.53;;;611.40;;
14015;SDS011;7083;48.854;9.158;2023-09-12T09:45:30;661.30;;;613.83;;
14015;SDS011;7083;48.854;9.158;2023-09-12T09:47:59;651.87;;;605.10;;
14015;SDS011;7083;48.854;9.158;2023-09-12T09:50:32;656.20;;;608.80;;
14015;SDS011;7083;48.854;9.158;2023-09-12T09:53:00;653.50;;;606.60;;
14015;SDS011;7083;48.854;9.158;2023-09-12T09:55:29;656.87;;;610.33;;
14015;SDS011;7083;48.854;9.158;2023-09-12T09:57:56;656.47;;;610.43;;
14015;SDS011;7083;48.854;9.158;2023-09-12T10:00:23;638.17;;;593.33;;
14015;SDS011;7083;48.854;9.158;2023-09-12T10:02:50;635.03;;;591.03;;
14015;SDS011;7083;48.854;9.158;2023-09-12T10:05:19;620.93;;;580.77;;
14015;SDS011;7083;48.854;9.158;2023-09-12T10:07:48;620.57;;;579.63;;
14015;SDS011;7083;48.854;9.158;2023-09-12T10:10:16;642.87;;;600.60;;
14015;SDS011;7083;48.854;9.158;2023-09-12T10:12:46;631.63;;;589.80;;
14015;SDS011;7083;48.854;9.158;2023-09-12T10:15:15;634.60;;;593.00;;
14015;SDS011;7083;48.854;9.158;2023-09-12T10:17:46;638.93;;;596.67;;
14015;SDS011;7083;48.854;9.158;2023-09-12T10:20:19;632.33;;;590.53;;
14015;SDS011;7083;48.854;9.158;2023-09-12T10:22:50;632.03;;;590.57;;
14015;SDS011;7083;48.854;9.158;2023-09-12T10:25:25;643.87;;;601.07;;
14015;SDS011;7083;48.854;9.158;2023-09-12T10:27:54;638.27;;;596.03;;
14015;SDS011;7083;48.854;9.158;2023-09-12T10:30:21;614.13;;;574.37;;
14015;SDS011;7083;48.854;9.158;2023-09-12T10:32:48;620.47;;;579.83;;
14015;SDS011;7083;48.854;9.158;2023-09-12T10:35:16;629.77;;;588.50;;
14015;SDS011;7083;48.854;9.158;2023-09-12T10:37:45;624.97;;;584.07;;
14015;SDS011;7083;48.854;9.158;2023-09-12T10:40:14;620.53;;;579.63;;
14015;SDS011;7083;48.854;9.158;2023-09-12T10:42:44;621.27;;;580.77;;
14015;SDS011;7083;48.854;9.158;2023-09-12T10:45:11;625.67;;;585.27;;
14015;SDS011;7083;48.854;9.158;2023-09-12T10:47:38;620.37;;;579.87;;
14015;SDS011;7083;48.854;9.158;2023-09-12T10:50:06;617.03;;;576.97;;
14015;SDS011;7083;48.854;9.158;2023-09-12T10:52:33;598.47;;;559.93;;
14015;SDS011;7083;48.854;9.158;2023-09-12T10:55:06;615.93;;;575.53;;
14015;SDS011;7083;48.854;9.158;2023-09-12T10:57:33;611.77;;;572.30;;
14015;SDS011;7083;48.854;9.158;2023-09-12T11:00:10;619.70;;;579.20;;
14015;SDS011;7083;48.854;9.158;2023-09-12T11:02:38;599.57;;;561.17;;
14015;SDS011;7083;48.854;9.158;2023-09-12T11:05:07;590.57;;;554.13;;
14015;SDS011;7083;48.854;9.158;2023-09-12T11:08:03;584.20;;;547.53;;
14015;SDS011;7083;48.854;9.158;2023-09-12T11:10:31;576.97;;;541.23;;
14015;SDS011;7083;48.854;9.158;2023-09-12T11:12:58;564.50;;;529.90;;
14015;SDS011;7083;48.854;9.158;2023-09-12T11:15:26;258.27;;;243.53;;
14015;SDS011;7083;48.854;9.158;2023-09-12T11:18:00;230.80;;;217.50;;
14015;SDS011;7083;48.854;9.158;2023-09-12T11:23:18;235.13;;;221.67;;
14015;SDS011;7083;48.854;9.158;2023-09-12T11:25:47;214.57;;;202.60;;
14015;SDS011;7083;48.854;9.158;2023-09-12T11:28:14;240.73;;;226.67;;
14015;SDS011;7083;48.854;9.158;2023-09-12T11:30:54;256.77;;;242.03;;
14015;SDS011;7083;48.854;9.158;2023-09-12T11:33:23;246.93;;;233.03;;
14015;SDS011;7083;48.854;9.158;2023-09-12T11:35:51;223.07;;;210.33;;
14015;SDS011;7083;48.854;9.158;2023-09-12T11:38:25;226.63;;;214.00;;
14015;SDS011;7083;48.854;9.158;2023-09-12T11:40:55;248.13;;;234.00;;
14015;SDS011;7083;48.854;9.158;2023-09-12T11:43:23;231.35;;;218.40;;
14015;SDS011;7083;48.854;9.158;2023-09-12T11:45:52;237.00;;;223.70;;
14015;SDS011;7083;48.854;9.158;2023-09-12T11:48:20;242.35;;;228.55;;
14015;SDS011;7083;48.854;9.158;2023-09-12T11:50:51;246.83;;;232.80;;
14015;SDS011;7083;48.854;9.158;2023-09-12T11:53:19;222.05;;;209.55;;
14015;SDS011;7083;48.854;9.158;2023-09-12T11:55:50;228.35;;;216.00;;
14015;SDS011;7083;48.854;9.158;2023-09-12T11:58:20;255.57;;;241.10;;
14015;SDS011;7083;48.854;9.158;2023-09-12T12:00:48;246.65;;;232.93;;
14015;SDS011;7083;48.854;9.158;2023-09-12T12:03:16;269.70;;;254.88;;
14015;SDS011;7083;48.854;9.158;2023-09-12T12:05:44;259.25;;;245.63;;
14015;SDS011;7083;48.854;9.158;2023-09-12T12:08:11;292.65;;;277.05;;
14015;SDS011;7083;48.854;9.158;2023-09-12T12:10:38;198.57;;;189.10;;
14015;SDS011;7083;48.854;9.158;2023-09-12T12:13:06;298.88;;;284.38;;
14015;SDS011;7083;48.854;9.158;2023-09-12T12:15:38;331.17;;;314.60;;
14015;SDS011;7083;48.854;9.158;2023-09-12T12:18:04;324.13;;;308.27;;
14015;SDS011;7083;48.854;9.158;2023-09-12T12:20:31;312.05;;;296.63;;
14015;SDS011;7083;48.854;9.158;2023-09-12T12:22:58;306.35;;;291.05;;
14015;SDS011;7083;48.854;9.158;2023-09-12T12:25:25;294.85;;;279.95;;
14015;SDS011;7083;48.854;9.158;2023-09-12T12:27:52;287.25;;;272.65;;
14015;SDS011;7083;48.854;9.158;2023-09-12T12:30:19;272.75;;;258.48;;
14015;SDS011;7083;48.854;9.158;2023-09-12T12:32:48;260.67;;;247.32;;
14015;SDS011;7083;48.854;9.158;2023-09-12T12:35:18;246.70;;;234.48;;
14015;SDS011;7083;48.854;9.158;2023-09-12T12:37:47;236.30;;;224.18;;
14015;SDS011;7083;48.854;9.158;2023-09-12T12:40:14;242.60;;;230.30;;
14015;SDS011;7083;48.854;9.158;2023-09-12T12:42:43;228.02;;;216.40;;
14015;SDS011;7083;48.854;9.158;2023-09-12T12:45:11;223.45;;;212.23;;
14015;SDS011;7083;48.854;9.158;2023-09-12T12:47:38;234.88;;;222.82;;
14015;SDS011;7083;48.854;9.158;2023-09-12T12:50:09;222.98;;;211.80;;
14015;SDS011;7083;48.854;9.158;2023-09-12T12:52:37;215.10;;;204.23;;
14015;SDS011;7083;48.854;9.158;2023-09-12T12:55:04;188.40;;;178.82;;
14015;SDS011;7083;48.854;9.158;2023-09-12T12:57:31;172.98;;;163.85;;
14015;SDS011;7083;48.854;9.158;2023-09-12T12:59:58;154.82;;;146.70;;
14015;SDS011;7083;48.854;9.158;2023-09-12T13:02:26;133.07;;;126.22;;
14015;SDS011;7083;48.854;9.158;2023-09-12T13:04:53;118.20;;;111.80;;
14015;SDS011;7083;48.854;9.158;2023-09-12T13:07:21;104.55;;;99.10;;
14015;SDS011;7083;48.854;9.158;2023-09-12T13:09:49;90.65;;;85.80;;
14015;SDS011;7083;48.854;9.158;2023-09-12T13:12:16;75.95;;;71.60;;
14015;SDS011;7083;48.854;9.158;2023-09-12T13:14:43;83.63;;;79.05;;
14015;SDS011;7083;48.854;9.158;2023-09-12T13:17:10;77.22;;;73.15;;
14015;SDS011;7083;48.854;9.158;2023-09-12T13:19:38;74.68;;;70.68;;
14015;SDS011;7083;48.854;9.158;2023-09-12T13:22:05;79.20;;;75.20;;
14015;SDS011;7083;48.854;9.158;2023-09-12T13:24:33;82.85;;;78.72;;
14015;SDS011;7083;48.854;9.158;2023-09-12T13:27:00;81.10;;;76.47;;
14015;SDS011;7083;48.854;9.158;2023-09-12T13:29:27;84.85;;;80.57;;
14015;SDS011;7083;48.854;9.158;2023-09-12T13:31:55;71.85;;;67.47;;
14015;SDS011;7083;48.854;9.158;2023-09-12T13:34:22;60.47;;;57.28;;
14015;SDS011;7083;48.854;9.158;2023-09-12T13:36:49;57.53;;;54.40;;
14015;SDS011;7083;48.854;9.158;2023-09-12T13:39:16;47.70;;;44.88;;
14015;SDS011;7083;48.854;9.158;2023-09-12T13:41:44;41.70;;;39.60;;
14015;SDS011;7083;48.854;9.158;2023-09-12T13:44:11;30.48;;;28.77;;
14015;SDS011;7083;48.854;9.158;2023-09-12T13:46:39;19.15;;;18.02;;
14015;SDS011;7083;48.854;9.158;2023-09-12T13:49:09;159.90;;;151.45;;
14015;SDS011;7083;48.854;9.158;2023-09-12T13:51:36;111.60;;;105.82;;
14015;SDS011;7083;48.854;9.158;2023-09-12T13:54:03;79.43;;;74.88;;
14015;SDS011;7083;48.854;9.158;2023-09-12T13:56:31;68.40;;;64.95;;
14015;SDS011;7083;48.854;9.158;2023-09-12T13:59:02;70.00;;;66.25;;
14015;SDS011;7083;48.854;9.158;2023-09-12T14:01:31;68.03;;;64.63;;
14015;SDS011;7083;48.854;9.158;2023-09-12T14:03:58;68.03;;;64.53;;
14015;SDS011;7083;48.854;9.158;2023-09-12T14:06:25;71.88;;;67.93;;
14015;SDS011;7083;48.854;9.158;2023-09-12T14:08:52;73.90;;;70.15;;
14015;SDS011;7083;48.854;9.158;2023-09-12T14:11:19;72.90;;;69.07;;
14015;SDS011;7083;48.854;9.158;2023-09-12T14:13:46;68.45;;;65.05;;
14015;SDS011;7083;48.854;9.158;2023-09-12T14:16:15;64.85;;;60.97;;
14015;SDS011;7083;48.854;9.158;2023-09-12T14:18:42;66.03;;;62.55;;